createdAt,value
2022-11-20T00:02:22.178Z,13.45
2022-11-20T00:07:28.392Z,14.10
2022-11-20T00:12:34.810Z,13.92
2022-11-20T00:17:40.977Z,14.07
2022-11-20T00:22:47.075Z,13.52
2022-11-20T00:27:53.246Z,14.11
2022-11-20T00:32:59.345Z,13.82
2022-11-20T00:38:06.286Z,13.88
2022-11-20T00:43:12.679Z,13.35
2022-11-20T00:48:18.934Z,13.92
2022-11-20T00:53:25.005Z,13.83
2022-11-20T00:58:31.180Z,13.29
2022-11-20T01:03:37.528Z,13.86
2022-11-20T01:08:43.693Z,13.79
2022-11-20T01:13:49.812Z,14.90
2022-11-20T01:18:56.050Z,13.66
2022-11-20T01:24:03.028Z,13.40
2022-11-20T01:29:09.191Z,13.24
2022-11-20T01:34:15.245Z,13.81
2022-11-20T01:39:21.934Z,13.46
2022-11-20T01:44:28.513Z,13.14
2022-11-20T01:49:34.673Z,13.57
2022-11-20T01:54:40.730Z,12.75
2022-11-20T01:59:47.018Z,12.79
2022-11-20T02:04:53.085Z,12.74
2022-11-20T02:09:59.395Z,13.05
2022-11-20T02:15:05.529Z,12.59
2022-11-20T02:20:12.053Z,12.30
2022-11-20T02:25:18.438Z,12.39
2022-11-20T02:30:24.657Z,11.99
2022-11-20T02:35:30.747Z,11.08
2022-11-20T02:40:36.995Z,11.24
2022-11-20T02:45:43.385Z,11.14
2022-11-20T02:50:49.717Z,11.35
2022-11-20T02:55:55.799Z,11.03
2022-11-20T03:01:02.022Z,11.10
2022-11-20T03:06:08.049Z,10.66
2022-11-20T03:11:14.373Z,10.44
2022-11-20T03:16:20.451Z,10.25
2022-11-20T03:21:26.667Z,10.09
2022-11-20T03:26:32.910Z,10.06
2022-11-20T03:31:39.079Z,9.54
2022-11-20T03:37:03.939Z,9.76
2022-11-20T03:42:10.239Z,9.01
2022-11-20T03:47:16.310Z,9.45
2022-11-20T03:52:22.800Z,8.99
2022-11-20T03:57:28.879Z,9.24
2022-11-20T04:02:35.071Z,8.82
2022-11-20T04:07:41.203Z,8.69
2022-11-20T04:12:47.420Z,8.63
2022-11-20T04:17:53.560Z,8.33
2022-11-20T04:22:59.758Z,8.00
2022-11-20T04:28:06.155Z,7.66
2022-11-20T04:33:12.401Z,7.54
2022-11-20T04:38:18.498Z,7.46
2022-11-20T04:43:24.673Z,7.87
2022-11-20T04:48:30.749Z,6.88
2022-11-20T04:53:37.225Z,7.04
2022-11-20T04:58:43.287Z,6.62
2022-11-20T05:03:49.489Z,6.83
2022-11-20T05:08:55.648Z,6.83
2022-11-20T05:14:01.843Z,6.88
2022-11-20T05:19:07.897Z,7.30
2022-11-20T05:24:14.115Z,7.11
2022-11-20T05:29:20.564Z,7.36
2022-11-20T05:34:26.401Z,7.62
2022-11-20T05:39:32.480Z,7.81
2022-11-20T05:44:38.637Z,7.64
2022-11-20T05:49:44.737Z,8.07
2022-11-20T05:54:50.896Z,7.71
2022-11-20T05:59:56.983Z,8.13
2022-11-20T06:05:03.509Z,8.18
2022-11-20T06:10:09.573Z,8.12
2022-11-20T06:15:15.752Z,8.22
2022-11-20T06:20:21.823Z,8.45
2022-11-20T06:25:28.049Z,8.58
2022-11-20T06:30:34.117Z,8.77
2022-11-20T06:35:40.376Z,9.57
2022-11-20T06:40:46.736Z,8.70
2022-11-20T06:45:53.006Z,9.05
2022-11-20T06:50:59.387Z,9.55
2022-11-20T06:56:05.546Z,9.53
2022-11-20T07:01:11.753Z,9.64
2022-11-20T07:06:17.866Z,9.72
2022-11-20T07:11:24.483Z,8.97
2022-11-20T07:16:30.730Z,9.39
2022-11-20T07:21:36.786Z,9.02
2022-11-20T07:26:42.969Z,9.62
2022-11-20T07:31:49.044Z,9.70
2022-11-20T07:36:55.171Z,9.98
2022-11-20T07:42:01.243Z,10.39
2022-11-20T07:47:07.435Z,13.11
2022-11-20T07:52:13.553Z,20.05
2022-11-20T07:57:21.229Z,14.59
2022-11-20T08:02:25.398Z,12.64
2022-11-20T08:07:31.668Z,11.89
2022-11-20T08:12:37.689Z,11.50
2022-11-20T08:17:56.756Z,11.79
2022-11-20T08:22:49.513Z,11.94
2022-11-20T08:28:00.147Z,12.09
2022-11-20T08:33:04.196Z,12.04
2022-11-20T08:38:10.331Z,11.87
2022-11-20T08:43:16.507Z,12.08
2022-11-20T08:48:22.814Z,12.12
2022-11-20T08:53:28.968Z,12.08
2022-11-20T08:58:55.040Z,12.31
2022-11-20T09:03:40.722Z,12.58
2022-11-20T09:08:46.954Z,12.56
2022-11-20T09:13:53.103Z,12.51
2022-11-20T09:19:20.713Z,12.36
2022-11-20T09:24:05.083Z,12.33
2022-11-20T09:29:11.226Z,12.60
2022-11-20T09:34:17.703Z,12.25
2022-11-20T09:39:24.815Z,12.57
2022-11-20T09:44:30.680Z,11.48
2022-11-20T09:49:36.965Z,11.79
2022-11-20T09:54:43.021Z,12.03
2022-11-20T09:59:49.207Z,12.72
2022-11-20T10:04:55.334Z,12.25
2022-11-20T10:10:01.640Z,12.01
2022-11-20T10:15:07.695Z,11.66
2022-11-20T10:20:13.861Z,11.70
2022-11-20T10:25:19.961Z,11.78
2022-11-20T10:30:26.245Z,11.80
2022-11-20T10:35:32.237Z,12.47
2022-11-20T10:40:38.362Z,12.11
2022-11-20T10:45:44.731Z,10.87
2022-11-20T10:50:50.956Z,10.92
2022-11-20T10:55:57.010Z,11.21
2022-11-20T11:01:03.241Z,9.74
2022-11-20T11:06:09.417Z,10.03
2022-11-20T11:11:15.672Z,10.94
2022-11-20T11:16:21.769Z,11.48
2022-11-20T11:21:27.979Z,10.38
2022-11-20T11:26:34.108Z,9.71
2022-11-20T11:31:40.264Z,9.15
2022-11-20T11:36:46.313Z,9.21
2022-11-20T11:41:52.554Z,8.59
2022-11-20T11:46:58.605Z,8.87
2022-11-20T11:52:04.772Z,8.42
2022-11-20T11:57:10.834Z,8.76
2022-11-20T12:02:17.106Z,8.67
2022-11-20T12:07:45.591Z,8.62
2022-11-20T12:12:28.938Z,8.82
2022-11-20T12:17:35.034Z,9.42
2022-11-20T12:22:41.323Z,8.73
2022-11-20T12:27:47.449Z,9.27
2022-11-20T12:32:53.683Z,8.93
2022-11-20T12:37:59.830Z,8.75
2022-11-20T12:43:06.367Z,8.38
2022-11-20T12:48:12.459Z,8.26
2022-11-20T12:53:18.651Z,9.07
2022-11-20T12:58:24.732Z,8.12
2022-11-20T13:03:30.990Z,8.88
2022-11-20T13:08:37.052Z,7.87
2022-11-20T13:13:43.342Z,8.21
2022-11-20T13:18:49.413Z,8.50
2022-11-20T13:23:55.571Z,8.96
2022-11-20T13:29:01.980Z,8.57
2022-11-20T13:34:08.261Z,8.25
2022-11-20T13:39:14.425Z,8.86
2022-11-20T13:44:20.739Z,8.42
2022-11-20T13:49:26.745Z,8.11
2022-11-20T13:54:32.913Z,8.17
2022-11-20T13:59:38.974Z,8.39
2022-11-20T14:04:45.164Z,8.63
2022-11-20T14:09:51.241Z,8.41
2022-11-20T14:14:57.874Z,8.44
2022-11-20T14:20:04.060Z,8.27
2022-11-20T14:25:10.270Z,9.68
2022-11-20T14:30:16.345Z,9.22
2022-11-20T14:35:22.569Z,9.32
2022-11-20T14:40:28.699Z,11.08
2022-11-20T14:45:34.912Z,11.65
2022-11-20T14:50:41.081Z,9.30
2022-11-20T14:55:47.375Z,8.23
2022-11-20T15:00:53.493Z,9.78
2022-11-20T15:05:59.739Z,8.26
2022-11-20T15:11:05.901Z,9.11
2022-11-20T15:16:12.454Z,9.13
2022-11-20T15:21:18.931Z,9.19
2022-11-20T15:26:25.979Z,16.70
2022-11-20T15:31:32.152Z,17.98
2022-11-20T15:36:38.266Z,9.61
2022-11-20T15:41:44.452Z,9.44
2022-11-20T15:46:50.645Z,9.14
2022-11-20T15:51:57.584Z,9.40
2022-11-20T15:57:03.762Z,9.89
2022-11-20T16:02:12.196Z,9.80
2022-11-20T16:07:15.742Z,9.62
2022-11-20T16:12:22.499Z,11.90
2022-11-20T16:17:28.673Z,11.90
2022-11-20T16:22:34.793Z,12.34
2022-11-20T16:27:40.993Z,11.71
2022-11-20T16:32:47.151Z,15.07
2022-11-20T16:37:53.308Z,14.76
2022-11-20T16:42:59.535Z,14.35
2022-11-20T16:48:05.728Z,14.25
2022-11-20T16:53:11.997Z,15.31
2022-11-20T16:58:18.176Z,15.53
2022-11-20T17:03:24.338Z,15.94
2022-11-20T17:08:30.677Z,16.57
2022-11-20T17:13:39.829Z,17.40
2022-11-20T17:18:42.775Z,17.43
2022-11-20T17:23:48.882Z,13.79
2022-11-20T17:28:55.187Z,15.07
2022-11-20T17:34:01.328Z,16.33
2022-11-20T17:39:07.588Z,12.80
2022-11-20T17:44:14.013Z,14.90
2022-11-20T17:49:23.112Z,13.88
2022-11-20T17:54:26.143Z,15.12
2022-11-20T17:59:32.322Z,13.91
2022-11-20T18:04:38.420Z,18.18
2022-11-20T18:09:44.618Z,20.34
2022-11-20T18:14:50.787Z,15.25
2022-11-20T18:20:21.845Z,22.30
2022-11-20T18:25:02.642Z,21.06
2022-11-20T18:30:08.843Z,16.37
2022-11-20T18:35:15.027Z,16.40
2022-11-20T18:40:21.324Z,13.92
2022-11-20T18:45:27.464Z,14.45
2022-11-20T18:50:34.096Z,14.08
2022-11-20T18:55:40.214Z,13.79
2022-11-20T19:00:46.438Z,14.54
2022-11-20T19:05:53.001Z,13.86
2022-11-20T19:10:59.538Z,13.46
2022-11-20T19:16:05.641Z,13.97
2022-11-20T19:21:12.009Z,13.62
2022-11-20T19:26:18.160Z,13.71
2022-11-20T19:31:24.903Z,14.32
2022-11-20T19:36:30.104Z,14.76
2022-11-20T19:41:36.422Z,15.98
2022-11-20T19:46:42.563Z,15.77
2022-11-20T19:51:48.818Z,15.61
2022-11-20T19:56:54.906Z,14.70
2022-11-20T20:02:01.221Z,15.08
2022-11-20T20:07:07.346Z,14.52
2022-11-20T20:12:13.612Z,14.57
2022-11-20T20:17:19.706Z,13.56
2022-11-20T20:22:26.289Z,13.55
2022-11-20T20:27:32.422Z,13.64
2022-11-20T20:32:38.656Z,13.17
2022-11-20T20:37:44.724Z,14.03
2022-11-20T20:43:58.795Z,15.33
2022-11-20T20:49:05.258Z,13.94
2022-11-20T20:54:11.518Z,13.76
2022-11-20T20:59:17.686Z,13.32
2022-11-20T21:04:23.905Z,14.26
2022-11-20T21:09:30.039Z,14.07
2022-11-20T21:14:36.469Z,15.17
2022-11-20T21:19:42.597Z,15.27
2022-11-20T21:24:48.760Z,14.48
2022-11-20T21:29:54.819Z,15.00
2022-11-20T21:35:01.094Z,15.49
2022-11-20T21:40:08.856Z,14.99
2022-11-20T21:45:15.016Z,15.11
2022-11-20T21:50:21.149Z,15.14
2022-11-20T21:55:27.552Z,14.68
2022-11-20T22:00:33.716Z,15.31
2022-11-20T22:05:39.889Z,14.78
2022-11-20T22:10:46.052Z,15.04
2022-11-20T22:16:00.850Z,15.40
2022-11-20T22:20:57.931Z,15.12
2022-11-20T22:26:04.096Z,14.69
2022-11-20T22:31:10.565Z,15.12
2022-11-20T22:36:16.767Z,17.12
2022-11-20T22:41:22.942Z,16.91
2022-11-20T22:46:29.138Z,15.13
2022-11-20T22:51:35.307Z,14.55
2022-11-20T22:56:41.857Z,14.87
2022-11-20T23:01:47.964Z,14.02
2022-11-20T23:06:54.335Z,14.98
2022-11-20T23:12:00.465Z,14.55
2022-11-20T23:17:06.741Z,14.30
2022-11-20T23:22:12.892Z,14.09
2022-11-20T23:27:19.889Z,14.16
2022-11-20T23:32:24.757Z,14.18
2022-11-20T23:37:31.757Z,14.08
2022-11-20T23:42:37.915Z,14.47
2022-11-20T23:47:44.421Z,14.36
2022-11-20T23:52:50.498Z,14.88
2022-11-20T23:57:56.707Z,14.12
